Bushton, Kansas
Current Conditions -  °F | °C
As of 10:35 AM on Friday 24 Oct 2014 (Local Time) from KGBD Reporting Station
Clear Clear  
Wind Chill: 64°   Ceiling: Unl
Heat Index: 64°   Visibility: 8mi
Dew Point: 57°   Wind: 6mph
Humidity: 77%   Direction: 240°WSW
Pressure: 30.05"   Gusts: NA
Location:  38.51°N, 98.4°W
Report Text: KGBD 241535Z AUTO 24005KT 8SM CLR 18/14 A3005 RMK AO1
Loading
Personal Weather Stations






























Interactive Weather Map
Tropical Storm Tracking
New forecast layout! Learn more

10-Day Weather Forecast

Advertisements
Track Severe Weather on mobile